Earl Gonsoulin — WDC3306 — position and weather

sailwx.info

Track history (hours):
 
Tides and Currents Weather Stations Pressure Air Temp Water Temp Dewpoint Dewpoint Depression Visibility Wind Speed Wind Dir Waves Ship Positions

Earl Gonsoulin

Owner: LeBeouf Bros. Towing, L.L.C., Houma, LA. More information available from US FCC via Universal Licensing System and Coast Guard Vessel Documentation Center.

Last reported at 2016-Sep-30 03:33 UTC. Time now 2016-Sep-30 11:47 UTC.
Position N 30°05' W 093°20'.

Length 21 m; draft 3 m.

Type: Tug. MMSI: 367005550.

Date/timePositionNaut miles runAvg speedWind from/ knotsBaromVisibWave heightAir tempDewpointWater temp
2016-Sep-30 03:33N 30°05' W 093°20'0 0.0
2016-Sep-30 02:34N 30°05' W 093°20'0 0.0
2016-Sep-29 23:34N 30°05' W 093°20'0 0.0
2016-Sep-29 21:34N 30°05' W 093°20'0 0.0
2016-Sep-29 20:33N 30°05' W 093°20'0 0.0
2016-Sep-29 19:33N 30°05' W 093°20'0 0.0
2016-Sep-29 16:33N 30°05' W 093°20'0 0.0
2016-Sep-29 15:34N 30°05' W 093°20'0 0.0
2016-Sep-29 14:33N 30°05' W 093°20'0 0.0
2016-Sep-29 13:33N 30°05' W 093°20'0 0.0
2016-Sep-29 08:33N 30°05' W 093°20'0 0.0
2016-Sep-29 07:34N 30°05' W 093°20'0 0.1
2016-Sep-29 00:34N 30°05' W 093°20'1 0.3
2016-Sep-28 21:33N 30°06' W 093°19'8 4.0
2016-Sep-28 19:33N 30°04' W 093°28'80 4.0
2016-Sep-27 23:33N 29°30' W 094°52'11 2.7
2016-Sep-27 19:33N 29°37' W 095°02'0 0.0
2016-Sep-27 14:33N 29°37' W 095°02'0 0.0
2016-Sep-27 13:32N 29°37' W 095°02'0 0.0
2016-Sep-27 10:33N 29°37' W 095°02'6 0.6
2016-Sep-27 00:33N 29°42' W 095°03'0 0.0
2016-Sep-26 19:30N 29°42' W 095°03'0 0.0
2016-Sep-26 15:33N 29°42' W 095°03'0 0.0
2016-Sep-26 11:31N 29°42' W 095°03'0 0.0
2016-Sep-26 08:32N 29°42' W 095°03'0 0.0
2016-Sep-26 02:33N 29°42' W 095°03'0 0.0
2016-Sep-26 01:32N 29°42' W 095°03'0 0.0
2016-Sep-26 00:34N 29°42' W 095°03'0 0.0
2016-Sep-25 21:33N 29°42' W 095°03'0 0.0
2016-Sep-25 17:23N 29°42' W 095°03'0 0.0
2016-Sep-25 16:33N 29°42' W 095°03'0 0.0
2016-Sep-25 15:32N 29°42' W 095°03'0 0.0
2016-Sep-25 14:33N 29°42' W 095°03'0 0.0
2016-Sep-25 12:33N 29°42' W 095°03'0 0.0
2016-Sep-25 11:31N 29°42' W 095°03'0 0.0
2016-Sep-25 10:33N 29°42' W 095°03'0 0.0
2016-Sep-25 09:32N 29°42' W 095°03'0 0.0
2016-Sep-25 07:31N 29°42' W 095°03'4 1.3
2016-Sep-25 04:33N 29°41' W 094°59'5 1.1
2016-Sep-25 00:33N 29°37' W 095°01'0 0.0
2016-Sep-24 14:33N 29°37' W 095°01'0 0.0
2016-Sep-24 12:33N 29°37' W 095°01'0 0.0
2016-Sep-24 10:33N 29°37' W 095°01'0 0.0
2016-Sep-24 09:33N 29°37' W 095°01'0 0.0
2016-Sep-24 03:32N 29°37' W 095°01'0 0.0
2016-Sep-24 02:33N 29°37' W 095°01'0 0.0
2016-Sep-24 01:33N 29°37' W 095°01'  
Track history (hours):
 
Tides and Currents Weather Stations Pressure Air Temp Water Temp Dewpoint Dewpoint Depression Visibility Wind Speed Wind Dir Waves Ship Positions

Earl Gonsoulin

Owner: LeBeouf Bros. Towing, L.L.C., Houma, LA. More information available from US FCC via Universal Licensing System and Coast Guard Vessel Documentation Center.

Last reported at 2016-Sep-30 03:33 UTC. Time now 2016-Sep-30 11:47 UTC.
Position N 30°05' W 093°20'.

Length 21 m; draft 3 m.

Type: Tug. MMSI: 367005550.

Date/timePositionNaut miles runAvg speedWind from/ knotsBaromVisibWave heightAir tempDewpointWater temp
2016-Sep-30 03:33N 30°05' W 093°20'0 0.0
2016-Sep-30 02:34N 30°05' W 093°20'0 0.0
2016-Sep-29 23:34N 30°05' W 093°20'0 0.0
2016-Sep-29 21:34N 30°05' W 093°20'0 0.0
2016-Sep-29 20:33N 30°05' W 093°20'0 0.0
2016-Sep-29 19:33N 30°05' W 093°20'0 0.0
2016-Sep-29 16:33N 30°05' W 093°20'0 0.0
2016-Sep-29 15:34N 30°05' W 093°20'0 0.0
2016-Sep-29 14:33N 30°05' W 093°20'0 0.0
2016-Sep-29 13:33N 30°05' W 093°20'0 0.0
2016-Sep-29 08:33N 30°05' W 093°20'0 0.0
2016-Sep-29 07:34N 30°05' W 093°20'0 0.1
2016-Sep-29 00:34N 30°05' W 093°20'1 0.3
2016-Sep-28 21:33N 30°06' W 093°19'8 4.0
2016-Sep-28 19:33N 30°04' W 093°28'80 4.0
2016-Sep-27 23:33N 29°30' W 094°52'11 2.7
2016-Sep-27 19:33N 29°37' W 095°02'0 0.0
2016-Sep-27 14:33N 29°37' W 095°02'0 0.0
2016-Sep-27 13:32N 29°37' W 095°02'0 0.0
2016-Sep-27 10:33N 29°37' W 095°02'6 0.6
2016-Sep-27 00:33N 29°42' W 095°03'0 0.0
2016-Sep-26 19:30N 29°42' W 095°03'0 0.0
2016-Sep-26 15:33N 29°42' W 095°03'0 0.0
2016-Sep-26 11:31N 29°42' W 095°03'0 0.0
2016-Sep-26 08:32N 29°42' W 095°03'0 0.0
2016-Sep-26 02:33N 29°42' W 095°03'0 0.0
2016-Sep-26 01:32N 29°42' W 095°03'0 0.0
2016-Sep-26 00:34N 29°42' W 095°03'0 0.0
2016-Sep-25 21:33N 29°42' W 095°03'0 0.0
2016-Sep-25 17:23N 29°42' W 095°03'0 0.0
2016-Sep-25 16:33N 29°42' W 095°03'0 0.0
2016-Sep-25 15:32N 29°42' W 095°03'0 0.0
2016-Sep-25 14:33N 29°42' W 095°03'0 0.0
2016-Sep-25 12:33N 29°42' W 095°03'0 0.0
2016-Sep-25 11:31N 29°42' W 095°03'0 0.0
2016-Sep-25 10:33N 29°42' W 095°03'0 0.0
2016-Sep-25 09:32N 29°42' W 095°03'0 0.0
2016-Sep-25 07:31N 29°42' W 095°03'4 1.3
2016-Sep-25 04:33N 29°41' W 094°59'5 1.1
2016-Sep-25 00:33N 29°37' W 095°01'0 0.0
2016-Sep-24 14:33N 29°37' W 095°01'0 0.0
2016-Sep-24 12:33N 29°37' W 095°01'0 0.0
2016-Sep-24 10:33N 29°37' W 095°01'0 0.0
2016-Sep-24 09:33N 29°37' W 095°01'0 0.0
2016-Sep-24 03:32N 29°37' W 095°01'0 0.0
2016-Sep-24 02:33N 29°37' W 095°01'0 0.0
2016-Sep-24 01:33N 29°37' W 095°01'  

Dump ship's entire track history